Time;durP1;ratioP1;P1;durP2;ratioP2;P2;SDS_P1;SDS_P2;PMS_P1;PMS_P2;Temp;Humidity;BMP_temperature;BMP_pressure;BME280_temperature;BME280_humidity;BME280_pressure;Samples;Min_cycle;Max_cycle;Signal;HPM_P1;HPM_P2
2022/12/24 00:01:13;;;;;;;26.48;15.93;;;9.90;99.90;;;;;;5012616;28;20044;-65
2022/12/24 00:03:38;;;;;;;32.88;15.30;;;9.90;99.90;;;;;;5030195;28;20041;-65
2022/12/24 00:06:09;;;;;;;26.20;12.77;;;9.90;99.90;;;;;;5031078;28;20033;-65
2022/12/24 00:08:35;;;;;;;33.72;14.20;;;9.90;99.90;;;;;;5009553;28;20037;-65
2022/12/24 00:11:01;;;;;;;28.60;12.73;;;9.90;99.90;;;;;;5029095;28;20166;-65
2022/12/24 00:13:26;;;;;;;27.05;13.43;;;9.80;99.90;;;;;;5031119;28;20060;-65
2022/12/24 00:15:52;;;;;;;24.88;13.85;;;9.80;99.90;;;;;;5026646;28;20109;-65
2022/12/24 00:18:17;;;;;;;24.05;12.98;;;9.80;99.90;;;;;;5028819;28;20084;-65
2022/12/24 00:20:47;;;;;;;23.48;10.85;;;9.80;99.90;;;;;;5030915;28;20052;-65
2022/12/24 00:23:14;;;;;;;19.50;11.30;;;9.80;99.90;;;;;;5030402;28;20029;-64
2022/12/24 00:25:39;;;;;;;18.80;10.00;;;9.80;99.90;;;;;;5022312;28;20026;-64
2022/12/24 00:28:05;;;;;;;19.73;10.25;;;9.80;99.90;;;;;;5030759;28;20038;-64
2022/12/24 00:30:30;;;;;;;17.00;9.88;;;9.80;99.90;;;;;;5030627;28;20045;-65
2022/12/24 00:32:56;;;;;;;19.42;11.82;;;9.80;99.90;;;;;;5023883;28;20076;-65
2022/12/24 00:35:22;;;;;;;18.08;10.70;;;9.80;99.90;;;;;;5028948;28;20065;-64
2022/12/24 00:37:48;;;;;;;15.00;8.52;;;9.80;99.90;;;;;;5030950;28;20773;-65
2022/12/24 00:40:15;;;;;;;15.73;9.48;;;9.80;99.90;;;;;;5031031;28;20029;-65
2022/12/24 00:42:41;;;;;;;17.40;8.73;;;9.80;99.90;;;;;;5020297;28;20431;-65
2022/12/24 00:45:07;;;;;;;15.98;8.75;;;9.80;99.90;;;;;;5023575;28;20526;-64
2022/12/24 00:47:33;;;;;;;15.20;8.52;;;9.80;99.90;;;;;;5030867;28;20041;-65
2022/12/24 00:49:58;;;;;;;13.95;7.80;;;9.90;99.90;;;;;;5014191;28;20041;-65
2022/12/24 00:52:24;;;;;;;15.75;8.00;;;9.90;99.90;;;;;;5021749;28;20046;-65
2022/12/24 00:54:49;;;;;;;17.10;7.82;;;9.90;99.90;;;;;;5032171;28;20041;-65
2022/12/24 00:57:15;;;;;;;15.13;7.30;;;9.80;99.90;;;;;;5034387;28;20060;-65
2022/12/24 00:59:41;;;;;;;15.52;7.68;;;9.80;99.90;;;;;;5023574;28;20033;-65
2022/12/24 01:02:06;;;;;;;12.88;6.60;;;9.80;99.90;;;;;;5033597;28;20048;-65
2022/12/24 01:07:16;;;;;;;17.25;7.18;;;9.70;99.90;;;;;;5014319;28;20079;-65
2022/12/24 01:09:42;;;;;;;13.65;8.05;;;9.70;99.90;;;;;;5033797;28;20262;-65
2022/12/24 01:12:07;;;;;;;12.75;7.65;;;9.70;99.90;;;;;;5034004;28;20048;-65
2022/12/24 01:14:33;;;;;;;13.98;8.10;;;9.70;99.90;;;;;;5029692;28;20080;-64
2022/12/24 01:16:59;;;;;;;16.33;8.57;;;9.70;99.90;;;;;;5031312;28;20472;-64
2022/12/24 01:19:24;;;;;;;14.93;9.63;;;9.80;99.90;;;;;;5033932;28;20034;-64
2022/12/24 01:21:51;;;;;;;14.57;9.30;;;9.80;99.90;;;;;;5030145;28;21121;-65
2022/12/24 01:24:17;;;;;;;13.85;8.38;;;9.90;99.90;;;;;;5023547;28;20034;-64
2022/12/24 01:26:43;;;;;;;14.80;8.35;;;9.80;99.90;;;;;;5033170;28;20037;-65
2022/12/24 01:29:08;;;;;;;13.38;8.75;;;9.90;99.90;;;;;;5033905;28;20508;-64
2022/12/24 01:31:34;;;;;;;14.60;7.68;;;9.90;99.90;;;;;;5021303;28;20467;-66
2022/12/24 01:34:00;;;;;;;15.07;9.15;;;9.90;99.90;;;;;;5022091;28;20026;-64
2022/12/24 01:36:25;;;;;;;12.23;8.52;;;9.90;99.90;;;;;;5033573;28;20037;-64
2022/12/24 01:38:51;;;;;;;12.07;7.10;;;10.00;99.90;;;;;;5025755;28;20029;-67
2022/12/24 01:44:22;;;;;;;10.63;5.53;;;9.90;99.90;;;;;;5033364;28;20040;-64
2022/12/24 01:46:50;;;;;;;11.18;5.20;;;9.90;99.90;;;;;;5033784;28;20041;-64
2022/12/24 01:49:17;;;;;;;11.77;5.45;;;9.90;99.90;;;;;;5018028;28;20076;-64
2022/12/24 01:51:51;;;;;;;23.42;6.53;;;9.80;99.90;;;;;;5024469;28;20037;-65
2022/12/24 01:54:35;;;;;;;19.02;6.50;;;9.80;99.90;;;;;;5033476;28;20033;-65
2022/12/24 01:57:08;;;;;;;21.00;6.00;;;9.70;99.90;;;;;;5021458;28;20042;-64
2022/12/24 01:59:36;;;;;;;26.08;6.45;;;9.70;99.90;;;;;;5025051;28;20512;-63
2022/12/24 02:02:02;;;;;;;31.35;7.90;;;9.70;99.90;;;;;;5032918;28;20136;-63
2022/12/24 02:04:46;;;;;;;29.85;8.57;;;9.60;99.90;;;;;;5027770;28;20641;-63
2022/12/24 02:07:11;;;;;;;31.95;10.10;;;9.60;99.90;;;;;;5028949;28;20045;-63
2022/12/24 02:09:38;;;;;;;36.30;9.85;;;9.60;99.90;;;;;;5032786;28;20439;-65
2022/12/24 02:12:05;;;;;;;43.65;11.25;;;9.60;99.90;;;;;;5015139;28;20046;-62
2022/12/24 02:14:31;;;;;;;31.95;10.75;;;9.50;99.90;;;;;;5016280;28;20029;-64
2022/12/24 02:17:21;;;;;;;34.97;8.85;;;9.50;99.90;;;;;;5027497;28;20088;-62
2022/12/24 02:20:28;;;;;;;39.00;8.73;;;9.50;99.90;;;;;;4995829;28;20399;-65
2022/12/24 02:23:18;;;;;;;37.42;8.50;;;9.60;99.90;;;;;;4982083;28;20155;-65
2022/12/24 02:25:55;;;;;;;28.95;6.05;;;9.60;99.90;;;;;;5025653;28;20030;-63
2022/12/24 02:28:55;;;;;;;39.40;6.00;;;9.50;99.90;;;;;;5015157;28;20045;-63
2022/12/24 02:31:26;;;;;;;34.38;4.80;;;9.60;99.90;;;;;;5021067;28;20068;-63
2022/12/24 02:34:18;;;;;;;31.15;4.80;;;9.60;99.90;;;;;;5032247;28;20421;-64
2022/12/24 02:36:57;;;;;;;38.03;5.72;;;9.70;99.90;;;;;;5029478;28;20099;-66
2022/12/24 02:39:58;;;;;;;25.17;4.30;;;9.70;99.90;;;;;;5019264;28;20041;-63
2022/12/24 02:42:30;;;;;;;28.70;4.50;;;9.70;99.90;;;;;;5028445;28;20046;-65
2022/12/24 02:44:58;;;;;;;;;;;9.80;99.90;;;;;;5032803;28;20083;-64
2022/12/24 02:47:26;;;;;;;24.95;3.88;;;9.80;99.90;;;;;;5019420;28;19922;-63
2022/12/24 02:49:52;;;;;;;32.72;5.00;;;9.80;99.90;;;;;;5028567;28;20138;-65
2022/12/24 02:52:27;;;;;;;33.67;5.15;;;9.80;99.90;;;;;;5031493;28;20064;-66
2022/12/24 02:54:52;;;;;;;29.23;5.28;;;9.90;99.90;;;;;;5023559;28;20042;-64
2022/12/24 02:58:00;;;;;;;38.28;5.88;;;9.90;99.90;;;;;;5030958;28;20391;-63
2022/12/24 03:00:30;;;;;;;25.92;4.82;;;9.90;99.90;;;;;;5004740;28;20089;-64
2022/12/24 03:03:06;;;;;;;30.55;4.95;;;9.90;99.90;;;;;;5009953;28;20100;-64
2022/12/24 03:05:48;;;;;;;30.65;4.45;;;10.00;99.90;;;;;;5019439;28;20041;-64
2022/12/24 03:08:47;;;;;;;33.28;4.75;;;10.00;99.90;;;;;;5031884;28;20037;-64
2022/12/24 03:11:14;;;;;;;39.85;5.90;;;10.00;99.90;;;;;;5029596;28;20116;-65
2022/12/24 03:13:42;;;;;;;30.33;4.78;;;10.00;99.90;;;;;;5016144;28;20030;-65
2022/12/24 03:16:12;;;;;;;31.73;4.38;;;10.00;99.90;;;;;;5012693;28;20045;-65
2022/12/24 03:18:41;;;;;;;34.22;6.20;;;10.00;99.90;;;;;;5031706;28;20052;-64
2022/12/24 03:21:19;;;;;;;28.75;4.63;;;10.00;99.90;;;;;;5019984;28;20041;-64
2022/12/24 03:23:45;;;;;;;24.92;4.70;;;10.10;99.90;;;;;;5025072;28;20029;-64
2022/12/24 03:26:13;;;;;;;34.03;5.20;;;10.00;99.90;;;;;;5031523;28;20037;-64
2022/12/24 03:28:41;;;;;;;40.15;6.70;;;10.10;99.90;;;;;;5028671;28;20045;-64
2022/12/24 03:31:08;;;;;;;33.15;5.32;;;10.10;99.90;;;;;;5020643;28;20480;-67
2022/12/24 03:33:34;;;;;;;36.90;5.85;;;10.10;99.90;;;;;;5031109;28;20667;-64
2022/12/24 03:36:00;;;;;;;26.70;5.10;;;10.00;99.90;;;;;;5027078;28;20140;-65
2022/12/24 03:38:26;;;;;;;38.50;5.43;;;10.00;99.90;;;;;;5022388;28;20041;-65
2022/12/24 03:40:51;;;;;;;34.13;5.10;;;10.00;99.90;;;;;;5031060;28;20212;-66
2022/12/24 03:43:17;;;;;;;29.90;5.20;;;9.90;99.90;;;;;;5031645;28;20042;-64
2022/12/24 03:45:42;;;;;;;41.20;5.43;;;9.90;99.90;;;;;;5008448;28;20072;-64
2022/12/24 03:48:08;;;;;;;30.23;4.15;;;9.90;99.90;;;;;;5023099;28;20041;-64
2022/12/24 03:50:34;;;;;;;32.72;5.75;;;10.00;99.90;;;;;;5013013;28;20388;-66
2022/12/24 03:52:59;;;;;;;28.17;4.55;;;10.00;99.90;;;;;;5024360;28;20038;-64
2022/12/24 03:55:25;;;;;;;33.95;4.93;;;10.00;99.90;;;;;;5010061;28;20477;-64
2022/12/24 03:57:50;;;;;;;40.00;5.25;;;10.00;99.90;;;;;;5030975;28;20038;-65
2022/12/24 04:00:16;;;;;;;31.42;5.43;;;9.90;99.90;;;;;;5031244;28;20065;-66
2022/12/24 04:02:42;;;;;;;31.25;4.95;;;10.00;99.90;;;;;;5003010;28;20041;-65
2022/12/24 04:05:13;;;;;;;29.73;4.72;;;9.90;99.90;;;;;;5027084;28;20034;-64
2022/12/24 04:07:39;;;;;;;31.05;4.97;;;9.90;99.90;;;;;;5031564;28;20076;-64
2022/12/24 04:10:05;;;;;;;27.27;4.95;;;10.00;99.90;;;;;;5021165;28;20068;-67
2022/12/24 04:12:30;;;;;;;32.80;5.13;;;10.00;99.90;;;;;;5012384;28;20408;-66
2022/12/24 04:14:56;;;;;;;41.30;6.57;;;10.00;99.90;;;;;;5031188;28;20037;-64
2022/12/24 04:17:21;;;;;;;33.53;5.30;;;10.00;99.90;;;;;;5026356;28;20045;-65
2022/12/24 04:19:47;;;;;;;35.97;4.90;;;10.00;99.90;;;;;;5023641;28;20030;-65
2022/12/24 04:22:12;;;;;;;27.60;4.82;;;10.00;99.90;;;;;;5029987;28;20471;-66
2022/12/24 04:24:38;;;;;;;27.65;5.20;;;10.00;99.90;;;;;;5031246;28;20033;-64
2022/12/24 04:27:03;;;;;;;30.02;4.80;;;10.00;99.90;;;;;;5019436;28;20122;-64
2022/12/24 04:29:29;;;;;;;26.80;5.05;;;10.00;99.90;;;;;;5027912;28;20041;-65
2022/12/24 04:31:55;;;;;;;30.67;4.70;;;10.00;99.90;;;;;;5034558;28;20041;-66
2022/12/24 04:34:20;;;;;;;32.97;4.65;;;10.00;99.90;;;;;;5034780;28;20444;-64
2022/12/24 04:36:46;;;;;;;35.67;5.60;;;9.90;99.90;;;;;;5026436;28;20099;-64
2022/12/24 04:39:11;;;;;;;33.42;4.97;;;9.90;99.90;;;;;;5031103;28;20467;-64
2022/12/24 04:41:37;;;;;;;30.35;5.60;;;9.90;99.90;;;;;;5034491;28;20143;-65
2022/12/24 04:44:02;;;;;;;33.35;5.78;;;9.90;99.90;;;;;;5022464;28;20042;-64
2022/12/24 04:46:32;;;;;;;27.92;4.35;;;9.80;99.90;;;;;;5033249;28;20076;-64
2022/12/24 04:48:58;;;;;;;26.65;5.30;;;9.90;99.90;;;;;;5034155;28;20038;-65
2022/12/24 04:51:25;;;;;;;29.42;4.95;;;9.80;99.90;;;;;;5033800;28;20060;-64
2022/12/24 04:53:52;;;;;;;32.42;5.68;;;9.80;99.90;;;;;;5012278;28;20432;-64
2022/12/24 04:56:20;;;;;;;33.70;6.47;;;9.90;99.90;;;;;;5025298;28;20069;-64
2022/12/24 04:58:46;;;;;;;34.53;5.43;;;9.80;99.90;;;;;;5029362;28;20034;-65
2022/12/24 05:01:15;;;;;;;30.67;4.82;;;9.90;99.90;;;;;;5029675;28;20037;-66
2022/12/24 05:03:41;;;;;;;28.30;4.70;;;9.90;99.90;;;;;;5026744;28;20467;-64
2022/12/24 05:06:12;;;;;;;32.25;4.72;;;9.90;99.90;;;;;;5034145;28;20037;-64
2022/12/24 05:08:38;;;;;;;30.52;5.10;;;9.90;99.90;;;;;;5025948;28;20048;-64
2022/12/24 05:11:04;;;;;;;32.30;5.55;;;9.90;99.90;;;;;;5033374;28;20053;-64
2022/12/24 05:13:30;;;;;;;29.23;4.82;;;9.90;99.90;;;;;;5033925;28;20076;-64
2022/12/24 05:15:55;;;;;;;38.13;6.10;;;9.90;99.90;;;;;;5025478;28;20652;-64
2022/12/24 05:18:22;;;;;;;30.98;5.55;;;9.90;99.90;;;;;;5020557;28;20072;-64
2022/12/24 05:20:48;;;;;;;30.45;5.75;;;9.80;99.90;;;;;;5033525;28;20095;-64
2022/12/24 05:26:20;;;;;;;42.88;6.47;;;9.80;99.90;;;;;;5022866;28;20052;-64
2022/12/24 05:28:47;;;;;;;37.53;5.40;;;9.80;99.90;;;;;;5027126;28;20034;-66
2022/12/24 05:31:13;;;;;;;46.95;6.07;;;9.80;99.90;;;;;;5033410;28;20083;-64
2022/12/24 05:33:38;;;;;;;30.45;5.63;;;9.80;99.90;;;;;;5025660;28;20033;-65
2022/12/24 05:36:04;;;;;;;35.35;5.68;;;9.80;99.90;;;;;;5023585;28;20526;-64
2022/12/24 05:38:30;;;;;;;37.20;5.85;;;9.80;99.90;;;;;;5033253;28;20052;-64
2022/12/24 05:40:56;;;;;;;42.20;5.68;;;9.80;99.90;;;;;;5032924;28;20125;-64
2022/12/24 05:43:21;;;;;;;32.60;4.40;;;9.80;99.90;;;;;;5026185;28;20451;-64
2022/12/24 05:45:47;;;;;;;39.65;5.25;;;9.70;99.90;;;;;;5026194;28;20045;-68
2022/12/24 05:48:13;;;;;;;37.72;5.50;;;9.70;99.90;;;;;;5032920;28;20045;-66
2022/12/24 05:50:39;;;;;;;32.17;5.45;;;9.70;99.90;;;;;;5022221;28;20076;-66
2022/12/24 05:53:06;;;;;;;35.58;4.97;;;9.70;99.90;;;;;;5026617;28;20034;-65
2022/12/24 05:55:32;;;;;;;31.00;5.18;;;9.70;99.90;;;;;;5030897;28;20041;-65
2022/12/24 05:57:57;;;;;;;37.17;4.63;;;9.60;99.90;;;;;;5022711;28;20049;-66
2022/12/24 06:00:23;;;;;;;31.48;4.47;;;9.60;99.90;;;;;;5025531;28;20029;-66
2022/12/24 06:02:49;;;;;;;32.45;4.90;;;9.60;99.90;;;;;;5030770;28;20515;-65
2022/12/24 06:05:14;;;;;;;27.35;4.85;;;9.60;99.90;;;;;;5031935;28;20033;-64
2022/12/24 06:07:40;;;;;;;40.08;4.65;;;9.60;99.90;;;;;;5020238;28;20069;-65
2022/12/24 06:10:06;;;;;;;27.48;4.28;;;9.60;99.90;;;;;;5023247;28;20037;-65
2022/12/24 06:12:32;;;;;;;33.10;4.38;;;9.60;99.90;;;;;;5029496;28;20060;-66
2022/12/24 06:14:58;;;;;;;24.50;4.47;;;9.60;99.90;;;;;;5031217;28;20563;-65
2022/12/24 06:17:23;;;;;;;31.25;4.30;;;9.60;99.90;;;;;;5015961;28;20049;-64
2022/12/24 06:19:49;;;;;;;32.58;4.30;;;9.60;99.90;;;;;;5031216;28;20048;-64
2022/12/24 06:22:14;;;;;;;26.70;5.30;;;9.60;99.90;;;;;;5031750;28;20056;-64
2022/12/24 06:24:40;;;;;;;35.60;4.95;;;9.50;99.90;;;;;;5009469;28;20041;-65
2022/12/24 06:27:05;;;;;;;28.95;4.80;;;9.50;99.90;;;;;;5031357;28;20049;-67
2022/12/24 06:29:31;;;;;;;25.88;4.20;;;9.50;99.90;;;;;;5031393;28;20041;-67
2022/12/24 06:31:57;;;;;;;19.55;3.78;;;9.50;99.90;;;;;;5023612;28;20033;-67
2022/12/24 06:34:22;;;;;;;34.17;4.63;;;9.50;99.90;;;;;;5025759;28;20034;-68
2022/12/24 06:36:48;;;;;;;28.52;5.10;;;9.50;99.90;;;;;;5031804;28;20046;-66
2022/12/24 06:39:13;;;;;;;31.05;4.70;;;9.40;99.90;;;;;;5026494;28;20412;-71
2022/12/24 06:41:39;;;;;;;30.83;4.43;;;9.40;99.90;;;;;;5021106;28;20038;-65
2022/12/24 06:44:04;;;;;;;34.15;4.80;;;9.40;99.90;;;;;;5027618;28;20443;-66
2022/12/24 06:46:30;;;;;;;29.70;3.95;;;9.30;99.90;;;;;;5032468;28;20116;-64
2022/12/24 06:48:56;;;;;;;38.88;5.47;;;9.20;99.90;;;;;;5024984;28;20040;-66
2022/12/24 06:51:21;;;;;;;33.35;4.95;;;9.20;99.90;;;;;;5022220;28;20473;-66
2022/12/24 06:53:51;;;;;;;28.73;4.30;;;9.10;99.90;;;;;;5023785;28;20084;-66
2022/12/24 06:56:19;;;;;;;28.40;3.78;;;9.10;99.90;;;;;;5024428;28;20037;-67
2022/12/24 06:58:44;;;;;;;22.05;4.40;;;9.00;99.90;;;;;;5022457;28;20090;-65
2022/12/24 07:01:13;;;;;;;30.80;4.68;;;9.00;99.90;;;;;;5013827;28;20034;-65
2022/12/24 07:03:39;;;;;;;32.83;4.93;;;9.10;99.90;;;;;;5031844;28;20048;-66
2022/12/24 07:06:06;;;;;;;33.90;5.22;;;9.00;99.90;;;;;;5021832;28;20063;-68
2022/12/24 07:08:32;;;;;;;26.52;4.00;;;9.00;99.90;;;;;;5025582;28;20041;-69
2022/12/24 07:10:59;;;;;;;24.45;5.20;;;9.00;99.90;;;;;;5031833;28;20030;-67
2022/12/24 07:13:25;;;;;;;29.17;4.78;;;9.00;99.90;;;;;;5023772;28;20038;-67
2022/12/24 07:15:57;;;;;;;21.35;3.90;;;8.90;99.90;;;;;;5020561;28;20033;-68
2022/12/24 07:18:23;;;;;;;24.50;4.30;;;8.90;99.90;;;;;;5031259;28;20130;-68
2022/12/24 07:20:48;;;;;;;38.53;4.72;;;8.90;99.90;;;;;;5020626;28;20107;-67
2022/12/24 07:23:14;;;;;;;32.65;4.95;;;8.90;99.90;;;;;;5029259;28;20041;-67
2022/12/24 07:25:41;;;;;;;35.92;5.47;;;8.90;99.90;;;;;;5025421;28;20515;-66
2022/12/24 07:28:07;;;;;;;32.88;4.68;;;8.90;99.90;;;;;;5025079;28;20427;-67
2022/12/24 07:30:33;;;;;;;29.50;4.63;;;8.90;99.90;;;;;;5023056;28;20044;-68
2022/12/24 07:32:58;;;;;;;33.65;4.72;;;8.90;99.90;;;;;;5027570;28;20646;-67
2022/12/24 07:35:24;;;;;;;25.38;4.82;;;8.90;99.90;;;;;;5030491;28;20156;-67
2022/12/24 07:37:49;;;;;;;38.63;5.72;;;8.90;99.90;;;;;;5023052;28;20049;-67
2022/12/24 07:40:15;;;;;;;34.17;5.07;;;8.90;99.90;;;;;;5028137;28;20135;-67
2022/12/24 07:42:41;;;;;;;29.83;4.63;;;9.00;99.90;;;;;;5030605;28;20037;-67
2022/12/24 07:45:07;;;;;;;32.20;4.82;;;9.00;99.90;;;;;;5021544;28;20045;-67
2022/12/24 07:47:33;;;;;;;32.05;4.85;;;9.00;99.90;;;;;;5019887;28;20025;-67
2022/12/24 07:49:59;;;;;;;37.45;5.47;;;9.00;99.90;;;;;;5028902;28;20060;-67
2022/12/24 07:52:25;;;;;;;37.67;4.90;;;9.00;99.90;;;;;;5010728;28;20361;-67
2022/12/24 07:54:50;;;;;;;33.95;5.22;;;9.10;99.90;;;;;;5021613;28;20033;-66
2022/12/24 07:57:16;;;;;;;37.25;5.68;;;9.10;99.90;;;;;;5026187;28;20492;-68
2022/12/24 07:59:41;;;;;;;32.03;5.53;;;9.10;99.90;;;;;;5029813;28;20044;-67
2022/12/24 08:02:10;;;;;;;38.63;5.50;;;9.10;99.90;;;;;;5022132;28;20034;-68
2022/12/24 08:04:36;;;;;;;36.70;5.05;;;9.10;99.90;;;;;;5020599;28;20112;-67
2022/12/24 08:07:06;;;;;;;27.50;4.78;;;9.10;99.90;;;;;;5033399;28;20728;-67
2022/12/24 08:09:33;;;;;;;31.77;5.25;;;9.10;99.90;;;;;;5033840;28;20033;-67
2022/12/24 08:11:58;;;;;;;39.20;5.85;;;9.20;99.90;;;;;;5028324;28;20033;-67
2022/12/24 08:14:24;;;;;;;35.03;5.65;;;9.20;99.90;;;;;;5031077;28;20514;-67
2022/12/24 08:16:50;;;;;;;44.00;5.80;;;9.30;99.90;;;;;;5033381;28;20119;-67
2022/12/24 08:19:15;;;;;;;43.90;5.68;;;9.30;99.90;;;;;;5031777;28;20119;-67
2022/12/24 08:21:41;;;;;;;30.85;5.32;;;9.30;99.90;;;;;;5022396;28;20029;-66
2022/12/24 08:24:07;;;;;;;44.22;6.28;;;9.30;99.90;;;;;;5031002;28;20438;-67
2022/12/24 08:26:32;;;;;;;32.85;5.38;;;9.40;99.90;;;;;;5034897;28;20044;-67
2022/12/24 08:28:58;;;;;;;34.72;5.47;;;9.50;99.90;;;;;;5021815;28;20033;-67
2022/12/24 08:31:23;;;;;;;31.15;6.13;;;9.50;99.90;;;;;;5032556;28;20037;-67
2022/12/24 08:33:49;;;;;;;36.67;6.07;;;9.50;99.90;;;;;;5033956;28;20555;-68
2022/12/24 08:36:15;;;;;;;31.25;5.93;;;9.40;99.90;;;;;;5029591;28;20124;-68
2022/12/24 08:38:40;;;;;;;29.40;5.85;;;9.40;99.90;;;;;;5023952;28;20042;-68
2022/12/24 08:41:06;;;;;;;37.17;6.97;;;9.50;99.90;;;;;;5033175;28;20141;-68
2022/12/24 08:43:32;;;;;;;40.05;7.05;;;9.50;99.90;;;;;;5034221;28;20037;-67
2022/12/24 08:46:03;;;;;;;35.70;6.60;;;9.60;99.90;;;;;;5022780;28;20034;-68
2022/12/24 08:48:28;;;;;;;31.63;5.85;;;9.60;99.90;;;;;;5026505;28;20450;-68
2022/12/24 08:50:54;;;;;;;38.03;5.70;;;9.70;99.90;;;;;;5033349;28;20099;-68
2022/12/24 08:53:20;;;;;;;33.25;7.07;;;9.70;99.90;;;;;;5021433;28;20120;-68
2022/12/24 08:55:45;;;;;;;33.50;6.55;;;9.80;99.90;;;;;;5028472;28;20030;-68
2022/12/24 08:58:11;;;;;;;33.40;6.28;;;9.80;99.90;;;;;;5034018;28;20551;-67
2022/12/24 09:00:37;;;;;;;34.15;6.38;;;9.80;99.90;;;;;;5024474;28;20022;-68
2022/12/24 09:03:02;;;;;;;33.53;6.43;;;9.90;99.90;;;;;;5032714;28;20056;-67
2022/12/24 09:05:28;;;;;;;37.88;7.13;;;9.90;99.90;;;;;;5016423;28;20045;-67
2022/12/24 09:07:54;;;;;;;32.15;7.68;;;10.00;99.90;;;;;;5034530;28;20045;-68
2022/12/24 09:10:20;;;;;;;36.38;7.70;;;10.00;99.90;;;;;;5008919;28;20037;-67
2022/12/24 09:12:46;;;;;;;35.03;7.75;;;10.00;99.90;;;;;;5019271;28;20452;-67
2022/12/24 09:15:13;;;;;;;35.28;6.93;;;10.00;99.90;;;;;;5013503;28;23628;-68
2022/12/24 09:17:39;;;;;;;36.20;6.78;;;10.10;99.90;;;;;;5022749;28;20038;-66
2022/12/24 09:20:05;;;;;;;33.92;6.53;;;10.10;99.90;;;;;;5022102;28;20053;-67
2022/12/24 09:22:34;;;;;;;33.47;6.70;;;10.20;99.90;;;;;;5008110;28;20049;-67
2022/12/24 09:25:00;;;;;;;32.25;6.72;;;10.30;99.90;;;;;;5025814;28;20045;-68
2022/12/24 09:27:25;;;;;;;37.83;6.60;;;10.40;99.90;;;;;;5029378;28;20041;-68
2022/12/24 09:29:51;;;;;;;39.38;7.20;;;10.50;99.90;;;;;;5030233;28;20480;-67
2022/12/24 09:32:16;;;;;;;38.92;6.30;;;10.50;99.90;;;;;;5024834;28;20034;-68
2022/12/24 09:34:42;;;;;;;29.85;5.90;;;10.60;99.90;;;;;;5033239;28;20037;-68
2022/12/24 09:37:07;;;;;;;36.67;6.07;;;10.50;99.90;;;;;;5033834;28;20073;-67
2022/12/24 09:39:33;;;;;;;39.80;5.93;;;10.50;99.90;;;;;;5010673;28;20069;-67
2022/12/24 09:42:17;;;;;;;31.40;5.97;;;10.50;99.90;;;;;;5029191;28;20033;-67
2022/12/24 09:44:50;;;;;;;36.65;6.07;;;10.40;99.90;;;;;;5021171;28;20076;-67
2022/12/24 09:47:25;;;;;;;30.65;5.28;;;10.50;99.90;;;;;;5021558;28;20128;-67
2022/12/24 09:49:54;;;;;;;31.33;5.85;;;10.50;99.90;;;;;;5030600;28;20049;-68
2022/12/24 09:52:31;;;;;;;32.58;6.25;;;10.60;99.90;;;;;;5025509;28;20049;-67
2022/12/24 09:55:05;;;;;;;32.58;6.20;;;10.70;99.90;;;;;;5023785;28;20689;-67
2022/12/24 09:57:35;;;;;;;29.55;5.63;;;10.70;99.90;;;;;;5022519;28;20045;-68
2022/12/24 10:00:02;;;;;;;26.83;6.38;;;10.60;99.90;;;;;;5021816;28;20040;-67
2022/12/24 10:02:28;;;;;;;27.50;5.30;;;10.50;99.90;;;;;;5023829;28;20795;-67
2022/12/24 10:04:54;;;;;;;38.03;6.30;;;10.40;99.90;;;;;;5021699;28;20033;-68
2022/12/24 10:07:48;;;;;;;33.20;5.20;;;10.30;99.90;;;;;;5015633;28;20069;-67
2022/12/24 10:10:27;;;;;;;25.05;4.72;;;10.30;99.90;;;;;;5024819;28;20125;-66
2022/12/24 10:13:05;;;;;;;30.48;4.75;;;10.20;99.90;;;;;;5021247;28;20092;-67
2022/12/24 10:15:39;;;;;;;23.05;4.10;;;10.20;99.90;;;;;;5028173;28;20038;-68
2022/12/24 10:18:23;;;;;;;20.88;5.10;;;10.20;99.90;;;;;;5022033;28;20095;-67
2022/12/24 10:21:06;;;;;;;23.05;4.00;;;10.10;99.90;;;;;;5027225;28;20107;-66
2022/12/24 10:23:50;;;;;;;20.60;3.83;;;10.10;99.90;;;;;;5028528;28;20037;-68
2022/12/24 10:26:25;;;;;;;22.02;3.85;;;10.10;99.90;;;;;;5007535;28;20080;-67
2022/12/24 10:29:07;;;;;;;20.75;4.28;;;10.10;99.90;;;;;;5027006;28;20077;-67
2022/12/24 10:31:38;;;;;;;26.35;4.88;;;10.10;99.90;;;;;;5021655;28;20084;-67
2022/12/24 10:34:21;;;;;;;28.85;6.18;;;10.20;99.90;;;;;;5022796;28;20030;-68
2022/12/24 10:36:46;;;;;;;28.23;5.78;;;10.30;99.90;;;;;;5027839;28;20808;-67
2022/12/24 10:39:22;;;;;;;25.95;5.65;;;10.30;99.90;;;;;;5020424;28;20067;-68
2022/12/24 10:41:54;;;;;;;27.10;5.80;;;10.40;99.90;;;;;;5024514;28;20064;-68
2022/12/24 10:44:23;;;;;;;37.08;6.88;;;10.40;99.90;;;;;;5024834;28;20033;-68
2022/12/24 10:46:49;;;;;;;23.50;5.80;;;10.50;99.90;;;;;;5027617;28;20033;-68
2022/12/24 10:49:43;;;;;;;24.42;5.70;;;10.40;99.90;;;;;;5016921;28;20623;-67
2022/12/24 10:52:16;;;;;;;28.30;5.82;;;10.50;99.90;;;;;;5008344;28;20037;-68
2022/12/24 10:55:06;;;;;;;32.13;5.85;;;10.50;99.90;;;;;;5003069;28;20052;-68
2022/12/24 10:57:33;;;;;;;28.05;5.65;;;10.60;99.90;;;;;;5028702;28;20037;-67
2022/12/24 10:59:59;;;;;;;30.25;7.07;;;10.60;99.90;;;;;;5019058;28;20034;-68
2022/12/24 11:02:35;;;;;;;34.13;6.70;;;10.70;99.90;;;;;;5008022;28;20048;-68
2022/12/24 11:05:06;;;;;;;35.03;6.20;;;10.80;99.90;;;;;;5009951;28;20045;-68
2022/12/24 11:07:32;;;;;;;32.95;7.57;;;10.80;99.90;;;;;;5026804;28;20412;-67
2022/12/24 11:10:04;;;;;;;41.33;6.53;;;10.80;99.90;;;;;;5028974;28;20091;-67
2022/12/24 11:12:34;;;;;;;;;;;10.90;99.90;;;;;;5032239;28;20050;-68
2022/12/24 11:15:17;;;;;;;38.95;6.68;;;10.90;99.90;;;;;;5012099;28;20399;-65
2022/12/24 11:18:03;;;;;;;36.53;6.53;;;10.90;99.90;;;;;;5010503;28;20087;-68
2022/12/24 11:20:31;;;;;;;35.50;6.32;;;10.80;99.90;;;;;;5031195;28;20033;-68
2022/12/24 11:22:57;;;;;;;35.72;7.00;;;10.70;99.90;;;;;;5008361;28;20108;-69
2022/12/24 11:25:32;;;;;;;33.42;5.82;;;10.70;99.90;;;;;;5013173;28;20132;-68
2022/12/24 11:28:32;;;;;;;29.20;5.32;;;10.70;99.90;;;;;;5031549;28;20052;-68
2022/12/24 11:31:18;;;;;;;39.50;6.07;;;10.70;99.90;;;;;;5031011;28;20053;-68
2022/12/24 11:33:46;;;;;;;45.28;6.78;;;10.70;99.90;;;;;;5008325;28;20132;-68
2022/12/24 11:36:13;;;;;;;38.08;5.65;;;10.70;99.90;;;;;;5027892;28;20492;-67
2022/12/24 11:38:38;;;;;;;32.78;5.07;;;10.80;99.90;;;;;;5010064;28;20042;-67
2022/12/24 11:41:10;;;;;;;35.88;6.03;;;10.80;99.90;;;;;;5018154;28;20087;-68
2022/12/24 11:43:45;;;;;;;35.90;5.32;;;10.90;99.90;;;;;;5000128;28;20486;-66
2022/12/24 11:46:31;;;;;;;29.15;5.07;;;10.90;99.90;;;;;;5026526;28;20091;-68
2022/12/24 11:49:14;;;;;;;28.33;5.10;;;10.90;99.90;;;;;;5008195;28;20504;-67
2022/12/24 11:52:04;;;;;;;36.00;5.75;;;10.90;99.90;;;;;;5030024;28;20042;-68
2022/12/24 11:54:36;;;;;;;32.88;5.88;;;10.90;99.90;;;;;;5020384;28;20038;-67
2022/12/24 11:57:03;;;;;;;33.10;5.45;;;10.90;99.90;;;;;;5019538;28;20042;-67
2022/12/24 11:59:37;;;;;;;25.17;4.78;;;10.90;99.90;;;;;;5026798;28;20376;-69
2022/12/24 12:02:22;;;;;;;32.10;5.65;;;10.90;99.90;;;;;;5019715;28;20052;-67
2022/12/24 12:04:54;;;;;;;30.75;5.65;;;10.90;99.90;;;;;;5023352;28;20503;-68
2022/12/24 12:07:33;;;;;;;32.65;6.18;;;11.00;99.90;;;;;;5024922;28;20096;-67
2022/12/24 12:10:18;;;;;;;26.63;5.07;;;11.10;99.90;;;;;;5023850;28;20037;-68
2022/12/24 12:13:06;;;;;;;29.08;5.65;;;11.10;99.90;;;;;;5024611;28;20056;-68
2022/12/24 12:15:41;;;;;;;24.42;4.55;;;11.10;99.90;;;;;;5017864;28;20277;-68
2022/12/24 12:18:13;;;;;;;36.40;5.47;;;11.10;99.90;;;;;;5030527;28;20033;-67
2022/12/24 12:20:47;;;;;;;24.02;5.25;;;11.10;99.90;;;;;;4993027;28;20038;-67
2022/12/24 12:23:29;;;;;;;27.13;5.13;;;11.10;99.90;;;;;;5016675;28;21302;-67
2022/12/24 12:26:09;;;;;;;27.40;5.50;;;11.20;99.90;;;;;;5030415;28;20037;-67
2022/12/24 12:28:37;;;;;;;32.85;5.65;;;11.20;99.90;;;;;;5030987;28;20045;-67
2022/12/24 12:31:16;;;;;;;26.92;4.35;;;11.20;99.90;;;;;;5023594;28;20147;-67
2022/12/24 12:34:01;;;;;;;29.52;5.47;;;11.20;99.90;;;;;;5029821;28;20790;-67
2022/12/24 12:36:36;;;;;;;26.42;4.68;;;11.20;99.90;;;;;;5004593;28;20052;-67
2022/12/24 12:39:02;;;;;;;26.25;4.55;;;11.20;99.90;;;;;;5024138;28;20063;-68
2022/12/24 12:42:01;;;;;;;18.48;4.63;;;11.20;99.90;;;;;;5023014;28;20041;-68
2022/12/24 12:45:05;;;;;;;24.38;4.35;;;11.20;99.90;;;;;;5027924;28;20035;-67
2022/12/24 12:47:49;;;;;;;31.45;5.07;;;11.20;99.90;;;;;;5020878;28;20045;-67
2022/12/24 12:50:33;;;;;;;25.45;4.82;;;11.20;99.90;;;;;;5027482;28;20522;-67
2022/12/24 12:53:09;;;;;;;23.75;4.63;;;11.10;99.90;;;;;;5032690;28;20041;-68
2022/12/24 12:55:56;;;;;;;24.17;4.05;;;11.20;99.90;;;;;;5034695;28;20038;-67
2022/12/24 12:58:44;;;;;;;23.30;4.75;;;11.10;99.90;;;;;;5029160;28;20108;-68
2022/12/24 13:01:26;;;;;;;27.58;4.53;;;11.00;99.90;;;;;;5012692;28;20037;-67
2022/12/24 13:04:31;;;;;;;24.45;4.30;;;10.90;99.90;;;;;;5025995;28;20067;-67
2022/12/24 13:07:20;;;;;;;25.67;4.60;;;10.90;99.90;;;;;;5032175;28;20076;-67